Time;durP1;ratioP1;P1;durP2;ratioP2;P2;SDS_P1;SDS_P2;PMS_P1;PMS_P2;Temp;Humidity;BMP_temperature;BMP_pressure;BME280_temperature;BME280_humidity;BME280_pressure;Samples;Min_cycle;Max_cycle;Signal;HPM_P1;HPM_P2
2022/11/05 00:10:59;;;;;;;;;;;8.90;73.40;;;;;;5019709;28;20085;-60
2022/11/05 00:19:08;;;;;;;8.50;5.30;;;8.90;73.10;;;;;;5029972;28;20028;-60
2022/11/05 00:27:08;;;;;;;;;;;8.80;73.30;;;;;;5021798;28;20125;-60
2022/11/05 00:29:35;;;;;;;9.98;4.85;;;8.90;73.50;;;;;;5037996;28;20254;-59
2022/11/05 00:32:01;;;;;;;10.90;5.57;;;8.90;73.10;;;;;;5015595;28;20083;-59
2022/11/05 00:34:26;;;;;;;11.13;5.45;;;8.80;73.20;;;;;;5043376;28;20072;-59
2022/11/05 00:36:52;;;;;;;8.77;4.70;;;8.80;74.10;;;;;;5037528;28;20025;-59
2022/11/05 00:39:18;;;;;;;9.48;4.65;;;8.80;73.60;;;;;;5023846;28;20034;-58
2022/11/05 00:44:58;;;;;;;7.28;5.03;;;8.80;73.70;;;;;;5020608;28;20077;-59
2022/11/05 00:49:57;;;;;;;7.40;4.18;;;8.90;73.80;;;;;;5022325;28;20066;-59
2022/11/05 00:55:07;;;;;;;9.35;6.00;;;8.90;74.10;;;;;;5020198;28;20536;-60
2022/11/05 00:57:33;;;;;;;13.18;6.40;;;8.90;74.00;;;;;;5029842;28;20034;-60
2022/11/05 00:59:58;;;;;;;9.68;5.82;;;8.90;74.00;;;;;;5032346;28;20108;-59
2022/11/05 01:02:24;;;;;;;11.13;5.75;;;8.90;74.00;;;;;;5028066;28;20029;-59
2022/11/05 01:04:50;;;;;;;9.93;5.85;;;8.90;73.90;;;;;;5032190;28;20033;-59
2022/11/05 01:07:15;;;;;;;13.60;5.90;;;8.90;73.90;;;;;;5031458;28;20052;-60
2022/11/05 01:09:41;;;;;;;10.52;5.15;;;8.90;73.90;;;;;;5032060;28;20029;-59
2022/11/05 01:12:07;;;;;;;9.10;5.25;;;8.90;74.10;;;;;;5031962;28;20524;-58
2022/11/05 01:14:33;;;;;;;9.30;5.10;;;8.90;74.30;;;;;;5026611;28;20037;-58
2022/11/05 01:16:58;;;;;;;8.40;4.70;;;8.90;74.50;;;;;;5024688;28;20026;-58
2022/11/05 01:19:24;;;;;;;10.82;4.53;;;8.90;74.50;;;;;;5029149;28;20501;-58
2022/11/05 01:21:50;;;;;;;10.93;5.30;;;8.90;74.70;;;;;;5025249;28;20034;-59
2022/11/05 01:24:15;;;;;;;10.50;4.72;;;8.90;74.70;;;;;;5004825;28;20027;-59
2022/11/05 01:26:41;;;;;;;8.95;4.82;;;8.90;74.90;;;;;;5037452;28;20030;-58
2022/11/05 01:29:09;;;;;;;6.50;5.00;;;9.00;75.00;;;;;;5031346;28;20030;-59
2022/11/05 01:31:36;;;;;;;8.23;5.45;;;9.00;75.10;;;;;;5026647;28;20037;-59
2022/11/05 01:34:02;;;;;;;9.30;4.47;;;9.00;75.20;;;;;;5032593;28;20038;-58
2022/11/05 01:36:27;;;;;;;8.07;4.68;;;9.10;75.40;;;;;;5029089;28;20086;-59
2022/11/05 01:38:53;;;;;;;8.25;4.85;;;9.10;75.40;;;;;;5011559;28;20022;-60
2022/11/05 01:41:20;;;;;;;6.75;4.25;;;9.20;75.40;;;;;;5026398;28;20026;-60
2022/11/05 01:43:55;;;;;;;8.32;4.55;;;9.20;75.40;;;;;;5032963;28;20014;-59
2022/11/05 01:46:44;;;;;;;6.00;4.25;;;9.20;75.70;;;;;;5027543;28;20138;-60
2022/11/05 01:49:21;;;;;;;11.05;4.70;;;9.30;75.90;;;;;;5002812;28;20025;-59
2022/11/05 01:51:48;;;;;;;7.88;4.82;;;9.30;75.50;;;;;;5026666;28;20041;-60
2022/11/05 01:54:17;;;;;;;8.02;4.43;;;9.30;75.40;;;;;;5020094;28;20101;-60
2022/11/05 01:56:51;;;;;;;5.85;4.57;;;9.40;75.40;;;;;;5019506;28;20376;-59
2022/11/05 01:59:30;;;;;;;6.65;4.53;;;9.40;75.60;;;;;;5028959;28;20018;-58
2022/11/05 02:01:56;;;;;;;7.82;4.82;;;9.40;75.60;;;;;;5005986;28;20099;-58
2022/11/05 02:04:34;;;;;;;7.53;4.10;;;9.50;75.30;;;;;;5026054;28;20108;-58
2022/11/05 02:07:01;;;;;;;9.18;4.25;;;9.50;75.50;;;;;;4999250;28;20036;-60
2022/11/05 02:09:43;;;;;;;6.63;4.85;;;9.50;75.20;;;;;;5022629;28;20021;-59
2022/11/05 02:12:12;;;;;;;7.03;4.35;;;9.50;75.30;;;;;;5015810;28;20064;-58
2022/11/05 02:14:37;;;;;;;14.00;5.13;;;9.50;75.10;;;;;;5004109;28;20045;-60
2022/11/05 02:17:17;;;;;;;9.48;5.07;;;9.50;75.10;;;;;;5025686;28;20026;-60
2022/11/05 02:20:01;;;;;;;8.35;4.30;;;9.60;75.40;;;;;;5006720;28;20041;-59
2022/11/05 02:22:45;;;;;;;9.70;4.70;;;9.60;75.50;;;;;;5005980;28;20037;-59
2022/11/05 02:25:33;;;;;;;8.38;4.65;;;9.60;75.20;;;;;;5009422;28;20449;-58
2022/11/05 02:28:16;;;;;;;7.57;4.65;;;9.60;75.30;;;;;;5026419;28;20091;-58
2022/11/05 02:31:14;;;;;;;8.27;5.05;;;9.60;75.20;;;;;;5029059;28;20073;-59
2022/11/05 02:34:12;;;;;;;7.60;4.95;;;9.60;75.00;;;;;;4987092;28;20061;-60
2022/11/05 02:36:47;;;;;;;11.35;5.32;;;9.60;75.00;;;;;;5019936;28;20132;-60
2022/11/05 02:39:34;;;;;;;7.75;5.03;;;9.60;74.80;;;;;;5026168;28;20018;-58
2022/11/05 02:42:22;;;;;;;8.15;5.43;;;9.60;75.30;;;;;;5026865;28;20026;-60
2022/11/05 02:45:09;;;;;;;8.93;4.95;;;9.60;75.20;;;;;;5006219;28;20041;-59
2022/11/05 02:48:06;;;;;;;7.05;5.15;;;9.60;75.20;;;;;;5020463;28;20041;-59
2022/11/05 02:51:13;;;;;;;7.43;4.93;;;9.60;75.70;;;;;;4998563;28;20041;-59
2022/11/05 02:53:52;;;;;;;5.47;4.50;;;9.60;75.80;;;;;;5014113;28;20065;-60
2022/11/05 02:56:40;;;;;;;7.38;4.70;;;9.60;75.70;;;;;;4990312;28;20030;-59
2022/11/05 02:59:06;;;;;;;6.80;4.10;;;9.60;76.10;;;;;;5031392;28;20058;-59
2022/11/05 03:01:35;;;;;;;5.70;4.63;;;9.60;75.60;;;;;;5019658;28;20022;-59
2022/11/05 03:04:05;;;;;;;7.35;5.20;;;9.60;75.70;;;;;;5037782;28;20145;-58
2022/11/05 03:07:06;;;;;;;7.55;4.93;;;9.60;75.70;;;;;;5024732;28;20030;-58
2022/11/05 03:10:12;;;;;;;9.10;4.65;;;9.70;76.10;;;;;;5006456;28;20065;-59
2022/11/05 03:12:55;;;;;;;9.98;3.95;;;9.70;76.10;;;;;;5015973;28;20104;-59
2022/11/05 03:15:35;;;;;;;7.72;4.50;;;9.70;75.50;;;;;;5020346;28;20036;-58
2022/11/05 03:18:09;;;;;;;6.65;4.35;;;9.70;75.70;;;;;;5017541;28;20397;-59
2022/11/05 03:20:53;;;;;;;10.27;4.43;;;9.70;75.60;;;;;;5021240;28;20124;-58
2022/11/05 03:23:28;;;;;;;6.40;4.85;;;9.80;75.90;;;;;;5019661;28;20026;-59
2022/11/05 03:26:09;;;;;;;6.25;4.32;;;9.80;75.60;;;;;;5021972;28;20034;-60
2022/11/05 03:28:38;;;;;;;7.38;4.70;;;9.80;75.90;;;;;;5017060;28;20524;-58
2022/11/05 03:31:07;;;;;;;6.22;4.20;;;9.80;75.60;;;;;;5032261;28;20068;-58
2022/11/05 03:33:35;;;;;;;7.60;4.07;;;9.80;75.60;;;;;;5016402;28;20029;-60
2022/11/05 03:36:10;;;;;;;4.82;3.88;;;9.90;75.80;;;;;;5010998;28;20045;-61
2022/11/05 03:38:40;;;;;;;6.10;4.38;;;9.90;75.90;;;;;;5005003;28;20072;-60
2022/11/05 03:41:10;;;;;;;6.63;4.03;;;9.90;75.80;;;;;;5016610;28;20018;-60
2022/11/05 03:43:40;;;;;;;4.63;3.88;;;10.00;75.90;;;;;;5019374;28;20057;-61
2022/11/05 03:46:29;;;;;;;6.90;4.20;;;10.00;75.90;;;;;;5030134;28;20026;-59
2022/11/05 03:48:57;;;;;;;6.20;4.32;;;10.00;76.20;;;;;;5030159;28;20030;-59
2022/11/05 03:51:47;;;;;;;4.05;3.42;;;10.00;75.80;;;;;;5034517;28;20037;-61
2022/11/05 03:54:13;;;;;;;6.03;3.50;;;10.00;76.10;;;;;;5019212;28;20018;-60
2022/11/05 03:56:51;;;;;;;5.60;3.75;;;10.10;75.80;;;;;;5025093;28;20030;-62
2022/11/05 03:59:18;;;;;;;7.85;4.30;;;10.10;75.90;;;;;;5027419;28;20024;-60
2022/11/05 04:01:45;;;;;;;7.07;4.47;;;10.10;75.70;;;;;;5019784;28;20376;-59
2022/11/05 04:04:11;;;;;;;8.85;4.78;;;10.10;75.80;;;;;;5019864;28;20053;-59
2022/11/05 04:14:49;;;;;;;5.22;4.10;;;10.10;75.70;;;;;;5019214;28;20088;-58
2022/11/05 04:17:15;;;;;;;5.38;3.92;;;10.10;75.60;;;;;;5021941;28;20025;-59
2022/11/05 04:25:15;;;;;;;7.55;3.67;;;10.20;75.80;;;;;;5020364;28;20037;-59
2022/11/05 04:27:41;;;;;;;7.07;4.18;;;10.20;75.80;;;;;;5021681;28;20339;-59
2022/11/05 04:30:20;;;;;;;6.40;4.05;;;10.20;75.90;;;;;;5021258;28;20068;-59
2022/11/05 04:33:01;;;;;;;9.90;3.78;;;10.20;76.00;;;;;;5018023;28;20030;-60
2022/11/05 04:35:29;;;;;;;4.18;3.45;;;10.20;76.20;;;;;;5022463;28;20022;-60
2022/11/05 04:37:55;;;;;;;5.07;3.30;;;10.20;75.90;;;;;;5015948;28;20021;-58
2022/11/05 04:40:21;;;;;;;5.38;3.85;;;10.30;75.90;;;;;;5021804;28;20034;-59
2022/11/05 04:42:47;;;;;;;5.05;3.90;;;10.30;76.00;;;;;;5002140;28;20052;-59
2022/11/05 04:45:13;;;;;;;4.88;3.78;;;10.30;76.10;;;;;;5022155;28;20041;-60
2022/11/05 04:47:38;;;;;;;5.45;3.40;;;10.30;76.10;;;;;;5023302;28;20798;-60
2022/11/05 04:50:04;;;;;;;7.70;3.92;;;10.30;76.10;;;;;;5002027;28;20037;-59
2022/11/05 04:52:32;;;;;;;6.25;3.30;;;10.40;76.10;;;;;;4900855;28;20108;-60
2022/11/05 04:54:57;;;;;;;4.50;3.53;;;10.40;76.10;;;;;;5024446;28;20025;-59
2022/11/05 04:57:24;;;;;;;4.28;3.22;;;10.40;76.00;;;;;;5026860;28;20048;-59
2022/11/05 04:59:50;;;;;;;4.22;3.42;;;10.40;76.00;;;;;;5017735;28;20018;-61
2022/11/05 05:02:16;;;;;;;5.90;3.50;;;10.40;76.00;;;;;;5019743;28;20025;-59
2022/11/05 05:04:42;;;;;;;5.40;3.50;;;10.50;76.00;;;;;;5022275;28;20033;-59
2022/11/05 05:07:07;;;;;;;5.75;3.97;;;10.40;75.90;;;;;;5024376;28;20061;-59
2022/11/05 05:09:33;;;;;;;3.67;3.10;;;10.50;76.10;;;;;;5025562;28;20044;-60
2022/11/05 05:12:00;;;;;;;7.18;4.00;;;10.50;76.10;;;;;;5022481;28;20041;-59
2022/11/05 05:14:25;;;;;;;5.22;3.50;;;10.50;76.10;;;;;;5028171;28;20026;-60
2022/11/05 05:16:51;;;;;;;7.57;3.35;;;10.50;76.10;;;;;;5032901;28;20041;-59
2022/11/05 05:19:17;;;;;;;4.20;3.45;;;10.50;76.00;;;;;;5041475;28;20029;-59
2022/11/05 05:21:42;;;;;;;5.75;3.55;;;10.50;75.90;;;;;;5026331;28;20053;-59
2022/11/05 05:24:11;;;;;;;4.75;3.70;;;10.50;75.90;;;;;;5024525;28;20110;-61
2022/11/05 05:26:43;;;;;;;8.55;3.55;;;10.50;76.10;;;;;;5034051;28;20030;-59
2022/11/05 05:29:10;;;;;;;4.28;3.50;;;10.50;76.10;;;;;;5028359;28;20044;-58
2022/11/05 05:31:37;;;;;;;4.78;3.15;;;10.50;76.10;;;;;;5027865;28;20041;-58
2022/11/05 05:34:04;;;;;;;5.35;3.63;;;10.60;76.10;;;;;;5028560;28;20048;-59
2022/11/05 05:36:30;;;;;;;4.63;3.47;;;10.60;76.10;;;;;;5019705;28;20382;-60
2022/11/05 05:38:55;;;;;;;6.00;3.65;;;10.60;76.10;;;;;;5024260;28;20081;-59
2022/11/05 05:41:21;;;;;;;5.15;3.53;;;10.60;76.10;;;;;;5021047;28;20064;-59
2022/11/05 05:43:47;;;;;;;4.60;3.22;;;10.60;76.10;;;;;;5008597;28;20038;-59
2022/11/05 05:46:16;;;;;;;3.72;2.95;;;10.60;76.10;;;;;;5022275;28;20034;-60
2022/11/05 05:48:42;;;;;;;4.93;3.20;;;10.60;76.70;;;;;;5021598;28;20075;-60
2022/11/05 05:51:10;;;;;;;5.28;2.85;;;10.60;76.00;;;;;;4915713;28;20379;-60
2022/11/05 05:53:37;;;;;;;4.13;3.20;;;10.60;76.20;;;;;;5021093;28;20037;-59
2022/11/05 05:56:03;;;;;;;3.30;2.72;;;10.70;76.30;;;;;;5016510;28;20102;-60
2022/11/05 05:58:35;;;;;;;3.42;3.05;;;10.70;76.30;;;;;;5023256;28;20018;-59
2022/11/05 06:01:07;;;;;;;4.88;2.58;;;10.70;76.40;;;;;;5027286;28;20079;-59
2022/11/05 06:03:33;;;;;;;4.88;2.53;;;10.70;76.30;;;;;;5021361;28;20054;-59
2022/11/05 06:06:05;;;;;;;3.45;2.80;;;10.70;76.30;;;;;;5020485;28;20402;-59
2022/11/05 06:08:31;;;;;;;3.05;2.42;;;10.70;76.40;;;;;;5033470;28;20070;-59
2022/11/05 06:10:57;;;;;;;4.22;2.80;;;10.70;76.30;;;;;;5005286;28;20042;-59
2022/11/05 06:13:23;;;;;;;5.03;3.10;;;10.80;76.40;;;;;;5026648;28;20028;-60
2022/11/05 06:15:49;;;;;;;5.95;3.00;;;10.80;76.40;;;;;;5022674;28;20033;-59
2022/11/05 06:18:14;;;;;;;6.95;3.28;;;10.80;76.40;;;;;;5029119;28;20033;-59
2022/11/05 06:20:40;;;;;;;3.67;2.47;;;10.80;76.40;;;;;;5024198;28;20021;-59
2022/11/05 06:23:06;;;;;;;4.78;3.45;;;10.80;76.40;;;;;;5023329;28;20022;-61
2022/11/05 06:25:32;;;;;;;5.63;3.45;;;10.90;76.40;;;;;;5023657;28;20072;-59
2022/11/05 06:27:59;;;;;;;5.00;3.55;;;10.90;76.30;;;;;;5025303;28;20030;-61
2022/11/05 06:30:25;;;;;;;3.28;2.75;;;10.90;76.30;;;;;;5020643;28;20021;-59
2022/11/05 06:32:51;;;;;;;4.30;2.88;;;10.90;76.30;;;;;;4993096;28;20037;-60
2022/11/05 06:35:17;;;;;;;9.25;3.10;;;10.90;76.30;;;;;;5021808;28;20025;-60
2022/11/05 06:37:42;;;;;;;4.93;2.75;;;10.90;76.40;;;;;;5028095;28;20068;-59
2022/11/05 06:40:08;;;;;;;4.20;3.20;;;10.90;76.50;;;;;;5018728;28;20038;-61
2022/11/05 06:42:34;;;;;;;4.70;3.50;;;10.90;76.50;;;;;;5000398;28;20033;-59
2022/11/05 06:45:00;;;;;;;3.80;3.13;;;10.90;76.50;;;;;;5018471;28;20497;-59
2022/11/05 06:47:34;;;;;;;4.00;2.95;;;10.90;76.40;;;;;;5020695;28;20037;-60
2022/11/05 06:50:00;;;;;;;5.25;3.60;;;10.90;76.60;;;;;;4997427;28;20128;-59
2022/11/05 06:52:30;;;;;;;7.38;3.63;;;11.00;76.50;;;;;;5003048;28;20179;-59
2022/11/05 06:54:55;;;;;;;3.90;3.15;;;11.00;76.50;;;;;;5017010;28;20033;-59
2022/11/05 06:57:21;;;;;;;4.85;3.58;;;11.00;76.60;;;;;;5029010;28;20034;-58
2022/11/05 06:59:47;;;;;;;7.40;3.58;;;11.00;76.80;;;;;;5029416;28;20029;-59
2022/11/05 07:02:12;;;;;;;3.80;3.15;;;11.10;77.00;;;;;;5022045;28;20058;-59
2022/11/05 07:04:38;;;;;;;3.90;3.17;;;11.10;77.00;;;;;;5025930;28;20099;-60
2022/11/05 07:07:05;;;;;;;4.18;3.30;;;11.20;77.10;;;;;;5018159;28;20033;-59
2022/11/05 07:09:31;;;;;;;4.40;3.00;;;11.20;77.00;;;;;;5021942;28;20036;-59
2022/11/05 07:11:57;;;;;;;4.13;3.05;;;11.30;77.00;;;;;;5005776;28;20044;-59
2022/11/05 07:14:22;;;;;;;4.38;2.90;;;11.30;77.00;;;;;;5013493;28;20026;-59
2022/11/05 07:16:50;;;;;;;5.75;3.33;;;11.40;76.90;;;;;;5005405;28;20505;-60
2022/11/05 07:19:15;;;;;;;3.85;3.08;;;11.40;76.90;;;;;;5015404;28;20026;-58
2022/11/05 07:21:41;;;;;;;3.78;2.90;;;11.50;76.90;;;;;;5017312;28;20057;-58
2022/11/05 07:24:07;;;;;;;3.72;2.60;;;11.50;76.90;;;;;;5003864;28;20044;-60
2022/11/05 07:26:32;;;;;;;2.25;2.05;;;11.60;76.60;;;;;;5006882;28;20097;-59
2022/11/05 07:28:58;;;;;;;2.58;2.03;;;11.60;76.00;;;;;;5021370;28;20041;-57
2022/11/05 07:31:24;;;;;;;1.60;1.42;;;11.60;75.40;;;;;;5041960;28;20044;-59
2022/11/05 07:33:49;;;;;;;1.60;1.50;;;11.60;75.00;;;;;;5029251;28;20037;-59
2022/11/05 07:36:15;;;;;;;1.25;1.15;;;11.60;74.90;;;;;;5033100;28;20085;-58
2022/11/05 07:38:41;;;;;;;4.30;2.67;;;11.60;74.80;;;;;;5035615;28;20026;-59
2022/11/05 07:41:06;;;;;;;1.48;1.20;;;11.60;75.40;;;;;;5007141;28;20021;-58
2022/11/05 07:43:32;;;;;;;12.27;6.93;;;11.60;74.10;;;;;;5025001;28;20113;-60
2022/11/05 07:45:58;;;;;;;2.80;2.42;;;11.60;74.20;;;;;;5014520;28;20040;-59
2022/11/05 07:48:24;;;;;;;5.25;2.85;;;11.50;74.20;;;;;;5025277;28;21440;-58
2022/11/05 07:50:51;;;;;;;6.10;2.38;;;11.50;74.30;;;;;;4942710;28;20096;-60
2022/11/05 07:53:19;;;;;;;2.15;1.15;;;11.50;74.30;;;;;;5034043;28;20076;-59
2022/11/05 07:55:45;;;;;;;0.75;0.75;;;11.50;74.30;;;;;;5017877;28;20022;-58
2022/11/05 07:58:11;;;;;;;1.17;0.68;;;11.50;74.20;;;;;;5045935;28;20032;-59
2022/11/05 08:00:36;;;;;;;1.10;0.75;;;11.50;73.90;;;;;;5036205;28;20085;-58
2022/11/05 08:03:09;;;;;;;3.33;0.90;;;11.50;73.60;;;;;;5035885;28;20564;-58
2022/11/05 08:05:37;;;;;;;1.60;0.85;;;11.40;73.50;;;;;;5026092;28;20026;-60
2022/11/05 08:08:04;;;;;;;0.85;0.80;;;11.40;73.50;;;;;;5035624;28;20494;-58
2022/11/05 08:10:30;;;;;;;0.80;0.75;;;11.30;73.50;;;;;;5031924;28;20352;-58
2022/11/05 08:12:55;;;;;;;1.23;0.70;;;11.20;73.40;;;;;;5035881;28;20029;-59
2022/11/05 08:15:22;;;;;;;0.77;0.77;;;11.20;73.60;;;;;;5008269;28;20022;-58
2022/11/05 08:17:48;;;;;;;0.80;0.68;;;11.20;73.80;;;;;;5031348;28;20022;-59
2022/11/05 08:20:15;;;;;;;0.70;0.70;;;11.10;73.70;;;;;;5031786;28;20060;-59
2022/11/05 08:22:44;;;;;;;0.95;0.90;;;11.10;73.80;;;;;;5037591;28;20068;-58
2022/11/05 08:25:13;;;;;;;4.38;1.50;;;11.10;73.90;;;;;;5033434;28;20041;-59
2022/11/05 08:27:39;;;;;;;2.05;1.45;;;11.00;74.10;;;;;;5027784;28;20504;-58
2022/11/05 08:30:06;;;;;;;12.50;1.35;;;11.00;74.30;;;;;;5021380;28;20032;-59
2022/11/05 08:32:32;;;;;;;1.10;1.00;;;11.00;74.50;;;;;;5032994;28;20568;-59
2022/11/05 08:34:58;;;;;;;2.05;0.75;;;11.00;74.60;;;;;;5033722;28;20044;-58
2022/11/05 08:37:23;;;;;;;0.90;0.80;;;11.00;74.70;;;;;;5032614;28;20104;-59
2022/11/05 08:39:49;;;;;;;1.95;0.52;;;11.00;74.90;;;;;;5027779;28;20022;-59
2022/11/05 08:42:15;;;;;;;3.50;0.50;;;11.10;75.10;;;;;;5026464;28;20022;-59
2022/11/05 08:44:41;;;;;;;1.30;0.63;;;11.10;75.10;;;;;;5021707;28;20038;-58
2022/11/05 08:47:07;;;;;;;4.30;2.92;;;11.10;74.70;;;;;;5029640;28;20026;-60
2022/11/05 08:49:32;;;;;;;2.90;1.70;;;11.20;74.70;;;;;;5025998;28;20065;-58
2022/11/05 08:51:59;;;;;;;2.33;1.35;;;11.20;74.40;;;;;;5029082;28;20077;-59
2022/11/05 08:54:26;;;;;;;2.33;1.10;;;11.20;74.30;;;;;;5011589;28;20029;-58
2022/11/05 08:56:52;;;;;;;4.10;0.80;;;11.20;74.20;;;;;;5029633;28;20109;-58
2022/11/05 08:59:17;;;;;;;0.73;0.68;;;11.20;74.30;;;;;;5002035;28;20058;-59
2022/11/05 09:01:43;;;;;;;1.00;0.90;;;11.10;74.30;;;;;;5027367;28;20017;-58
2022/11/05 09:04:09;;;;;;;0.80;0.80;;;11.10;74.40;;;;;;5029001;28;20065;-59
2022/11/05 09:06:34;;;;;;;0.80;0.70;;;11.10;74.40;;;;;;5031895;28;20355;-59
2022/11/05 09:09:00;;;;;;;3.28;0.82;;;11.10;74.30;;;;;;5011320;28;20030;-59
2022/11/05 09:11:26;;;;;;;0.88;0.88;;;11.10;74.60;;;;;;5023295;28;20048;-60
2022/11/05 09:13:52;;;;;;;1.77;0.98;;;11.10;74.70;;;;;;5027846;28;20049;-59
2022/11/05 09:16:23;;;;;;;3.08;1.23;;;11.10;74.80;;;;;;5026017;28;20037;-60
2022/11/05 09:18:49;;;;;;;1.95;1.80;;;11.10;74.90;;;;;;5029741;28;20037;-59
2022/11/05 09:21:16;;;;;;;2.25;2.03;;;11.10;74.90;;;;;;5024689;28;20030;-58
2022/11/05 09:23:44;;;;;;;5.35;1.88;;;11.10;75.00;;;;;;5017511;28;20025;-59
2022/11/05 09:26:11;;;;;;;3.03;2.13;;;11.20;75.20;;;;;;5025056;28;20075;-59
2022/11/05 09:28:36;;;;;;;2.67;2.17;;;11.20;75.50;;;;;;5033117;28;20048;-60
2022/11/05 09:31:07;;;;;;;2.58;2.38;;;11.30;76.20;;;;;;5023430;28;20033;-58
2022/11/05 09:33:35;;;;;;;3.17;2.35;;;11.30;75.60;;;;;;5023139;28;20122;-60
2022/11/05 09:36:01;;;;;;;3.80;2.10;;;11.40;75.50;;;;;;5029579;28;20029;-59
2022/11/05 09:38:27;;;;;;;2.40;2.20;;;11.40;75.50;;;;;;5025072;28;20076;-58
2022/11/05 09:41:25;;;;;;;2.85;2.58;;;11.50;75.60;;;;;;5003067;28;20030;-59
2022/11/05 09:43:57;;;;;;;3.47;3.17;;;11.60;75.50;;;;;;5026596;28;20065;-61
2022/11/05 09:46:27;;;;;;;4.85;2.90;;;11.70;75.60;;;;;;5032754;28;20029;-59
2022/11/05 09:49:03;;;;;;;5.68;3.15;;;11.80;75.50;;;;;;5005276;28;20040;-59
2022/11/05 09:51:30;;;;;;;5.32;3.90;;;11.80;75.50;;;;;;5001680;28;20037;-58
2022/11/05 09:53:58;;;;;;;4.00;3.42;;;11.90;75.10;;;;;;5026648;28;20085;-59
2022/11/05 09:56:28;;;;;;;5.80;4.13;;;12.00;74.90;;;;;;5026585;28;20026;-59
2022/11/05 09:59:16;;;;;;;4.25;3.70;;;12.00;74.90;;;;;;5013679;28;20394;-59
2022/11/05 10:01:43;;;;;;;5.65;4.05;;;12.10;74.80;;;;;;5009420;28;20040;-59
2022/11/05 10:04:16;;;;;;;4.57;3.92;;;12.10;74.60;;;;;;5025379;28;20137;-59
2022/11/05 10:06:50;;;;;;;5.07;4.47;;;12.20;74.60;;;;;;5022596;28;20080;-59
2022/11/05 10:09:23;;;;;;;6.15;4.43;;;12.30;74.70;;;;;;5016027;28;20037;-58
2022/11/05 10:11:55;;;;;;;6.00;4.80;;;12.40;74.60;;;;;;5027410;28;20386;-58
2022/11/05 10:14:27;;;;;;;5.40;4.90;;;12.50;74.10;;;;;;5017120;28;20062;-60
2022/11/05 10:17:01;;;;;;;8.35;5.30;;;12.60;74.00;;;;;;5025773;28;20030;-59
2022/11/05 10:19:54;;;;;;;7.53;5.35;;;12.70;73.50;;;;;;5022251;28;20109;-59
2022/11/05 10:22:20;;;;;;;5.80;4.75;;;12.80;72.50;;;;;;5031677;28;20101;-58
2022/11/05 10:24:48;;;;;;;5.07;4.50;;;12.80;72.30;;;;;;5032355;28;20014;-59
2022/11/05 10:27:24;;;;;;;4.97;4.38;;;12.80;72.60;;;;;;5026751;28;20045;-59
2022/11/05 10:29:50;;;;;;;6.18;5.07;;;12.80;72.30;;;;;;5022341;28;20041;-61
2022/11/05 10:32:28;;;;;;;6.25;5.53;;;12.80;71.80;;;;;;5028309;28;20041;-58
2022/11/05 10:34:57;;;;;;;5.70;5.03;;;12.80;71.70;;;;;;5025364;28;20026;-58
2022/11/05 10:37:26;;;;;;;6.13;4.80;;;12.80;71.80;;;;;;5019750;28;20022;-59
2022/11/05 10:39:52;;;;;;;7.70;4.97;;;12.80;72.20;;;;;;5025514;28;20030;-58
2022/11/05 10:42:42;;;;;;;5.75;4.78;;;12.90;72.40;;;;;;5021572;28;20033;-59
2022/11/05 10:45:18;;;;;;;5.38;4.68;;;12.90;72.20;;;;;;5019453;28;20102;-59
2022/11/05 10:48:25;;;;;;;5.90;4.60;;;13.00;72.70;;;;;;5025209;28;20037;-58
2022/11/05 10:50:51;;;;;;;5.97;4.57;;;13.10;72.50;;;;;;5030078;28;20026;-57
2022/11/05 10:53:21;;;;;;;6.55;5.35;;;13.20;72.80;;;;;;5020695;28;20108;-59
2022/11/05 10:55:52;;;;;;;7.32;5.22;;;13.30;71.80;;;;;;5012412;28;20120;-58
2022/11/05 10:58:18;;;;;;;6.78;5.78;;;13.40;71.50;;;;;;5023679;28;20026;-58
2022/11/05 11:01:06;;;;;;;6.20;4.85;;;13.40;71.20;;;;;;5031228;28;20108;-59
2022/11/05 11:03:34;;;;;;;5.93;4.65;;;13.50;71.00;;;;;;5011077;28;20060;-58
2022/11/05 11:06:02;;;;;;;6.57;4.85;;;13.50;70.60;;;;;;5006555;28;20022;-58
2022/11/05 11:08:30;;;;;;;6.05;4.53;;;13.50;70.60;;;;;;5000456;28;20042;-59
2022/11/05 11:10:59;;;;;;;5.80;4.93;;;13.50;70.60;;;;;;5000727;28;20202;-58
2022/11/05 11:13:47;;;;;;;7.57;4.43;;;13.60;70.80;;;;;;5021257;28;20041;-59
2022/11/05 11:16:19;;;;;;;6.90;5.63;;;13.60;70.60;;;;;;5011118;28;20037;-58
2022/11/05 11:18:45;;;;;;;7.45;4.97;;;13.70;70.20;;;;;;5025427;28;20041;-57
2022/11/05 11:21:18;;;;;;;5.05;3.97;;;13.70;69.60;;;;;;5003000;28;20030;-60
2022/11/05 11:24:03;;;;;;;5.55;4.40;;;13.70;69.30;;;;;;5001883;28;20103;-60
2022/11/05 11:26:32;;;;;;;5.18;4.32;;;13.70;68.70;;;;;;5031152;28;20087;-57
2022/11/05 11:29:03;;;;;;;4.75;4.13;;;13.70;69.60;;;;;;5031233;28;20124;-59
2022/11/05 11:31:30;;;;;;;5.38;4.70;;;13.80;69.70;;;;;;5005584;28;20041;-59
2022/11/05 11:34:04;;;;;;;6.78;4.78;;;13.80;69.50;;;;;;5008637;28;20030;-60
2022/11/05 11:36:40;;;;;;;5.68;4.85;;;13.90;68.90;;;;;;5025003;28;20116;-59
2022/11/05 11:39:07;;;;;;;7.20;4.93;;;13.90;68.70;;;;;;5016454;28;20026;-59
2022/11/05 11:41:38;;;;;;;5.20;4.50;;;13.90;68.10;;;;;;5024096;28;20366;-60
2022/11/05 11:44:19;;;;;;;4.90;4.15;;;13.80;67.40;;;;;;4984256;28;20032;-60
2022/11/05 11:46:48;;;;;;;4.90;3.45;;;13.70;67.60;;;;;;5024619;28;20026;-59
2022/11/05 11:49:59;;;;;;;3.83;3.40;;;13.60;67.80;;;;;;5021630;28;20040;-58
2022/11/05 11:52:34;;;;;;;2.28;2.08;;;13.40;66.90;;;;;;5001016;28;20096;-61
2022/11/05 11:55:11;;;;;;;4.03;2.60;;;13.30;68.10;;;;;;5021747;28;20031;-59
2022/11/05 11:57:52;;;;;;;2.47;2.28;;;13.20;67.80;;;;;;5023981;28;20056;-59
2022/11/05 12:00:22;;;;;;;3.13;1.88;;;13.20;68.00;;;;;;5021189;28;20041;-59
2022/11/05 12:02:47;;;;;;;2.15;1.98;;;13.10;68.50;;;;;;4998136;28;20051;-58
2022/11/05 12:05:36;;;;;;;2.83;2.17;;;13.00;68.30;;;;;;5018520;28;20086;-64
2022/11/05 12:08:22;;;;;;;2.20;2.03;;;13.00;68.00;;;;;;5021240;28;20033;-59
2022/11/05 12:11:17;;;;;;;2.05;1.80;;;12.90;68.10;;;;;;5015394;28;20036;-60
2022/11/05 12:13:43;;;;;;;3.95;2.33;;;12.90;68.70;;;;;;5014910;28;20041;-61
2022/11/05 12:16:20;;;;;;;3.17;2.22;;;12.80;69.20;;;;;;5030400;28;20036;-62
2022/11/05 12:19:12;;;;;;;8.57;2.63;;;12.80;69.50;;;;;;5027111;28;20025;-59
2022/11/05 12:21:44;;;;;;;3.50;2.42;;;12.90;69.50;;;;;;5029357;28;20034;-60
2022/11/05 12:24:33;;;;;;;2.65;2.15;;;12.90;70.00;;;;;;5018103;28;20126;-60
2022/11/05 12:27:32;;;;;;;2.45;2.25;;;13.00;70.30;;;;;;4982272;28;20053;-59
2022/11/05 12:30:16;;;;;;;3.00;2.70;;;13.00;70.00;;;;;;5035276;28;20021;-61
2022/11/05 12:33:00;;;;;;;5.28;2.75;;;13.10;69.50;;;;;;5034175;28;20121;-59
2022/11/05 12:35:56;;;;;;;3.45;3.13;;;13.20;69.50;;;;;;5020145;28;20026;-60
2022/11/05 12:38:45;;;;;;;3.75;3.20;;;13.20;69.20;;;;;;5019683;28;20057;-59
2022/11/05 12:41:19;;;;;;;5.35;3.63;;;13.20;69.00;;;;;;5019070;28;20025;-59
2022/11/05 12:44:17;;;;;;;4.82;3.88;;;13.20;68.70;;;;;;5007813;28;20026;-60
2022/11/05 12:46:42;;;;;;;4.03;3.45;;;13.20;67.90;;;;;;5005514;28;20490;-60
2022/11/05 12:49:33;;;;;;;7.47;3.95;;;13.20;69.00;;;;;;5023124;28;20026;-60
2022/11/05 12:51:58;;;;;;;5.05;3.90;;;13.10;69.30;;;;;;5029880;28;20029;-60
2022/11/05 12:54:36;;;;;;;4.30;3.55;;;13.10;69.30;;;;;;5023230;28;20628;-59
2022/11/05 12:57:03;;;;;;;6.25;3.65;;;13.10;69.90;;;;;;5022200;28;20026;-59
2022/11/05 12:59:42;;;;;;;4.75;3.70;;;13.10;69.10;;;;;;5031209;28;20129;-60
2022/11/05 13:02:34;;;;;;;4.40;3.67;;;13.10;69.00;;;;;;5033779;28;20028;-59
2022/11/05 13:05:03;;;;;;;5.50;4.20;;;13.10;69.20;;;;;;5025555;28;20046;-59
2022/11/05 13:07:37;;;;;;;4.05;3.55;;;13.10;68.50;;;;;;5026778;28;20026;-59
2022/11/05 13:10:31;;;;;;;3.40;3.10;;;13.10;69.10;;;;;;5035797;28;20025;-59
2022/11/05 13:13:30;;;;;;;4.47;3.58;;;13.10;69.30;;;;;;5027355;28;20141;-59
2022/11/05 13:16:12;;;;;;;4.20;3.60;;;13.20;68.90;;;;;;5005403;28;20030;-59
2022/11/05 13:18:50;;;;;;;4.15;3.47;;;13.20;68.20;;;;;;5029709;28;20026;-60
2022/11/05 13:21:22;;;;;;;5.68;3.85;;;13.20;67.60;;;;;;5022253;28;20030;-59
2022/11/05 13:23:58;;;;;;;5.40;4.07;;;13.10;68.10;;;;;;5024233;28;20152;-58
2022/11/05 13:26:37;;;;;;;4.60;3.97;;;13.10;68.30;;;;;;5030701;28;20022;-58
2022/11/05 13:29:27;;;;;;;4.50;3.75;;;13.10;68.30;;;;;;5024033;28;20072;-60
2022/11/05 13:32:03;;;;;;;4.15;2.90;;;13.00;68.00;;;;;;5033172;28;20536;-60
2022/11/05 13:34:29;;;;;;;3.15;2.75;;;12.90;67.90;;;;;;5027337;28;20029;-59
2022/11/05 13:39:54;;;;;;;3.42;3.13;;;12.70;67.90;;;;;;5018397;28;20057;-59
2022/11/05 13:42:46;;;;;;;3.47;3.17;;;12.60;68.40;;;;;;5024813;28;20053;-59
2022/11/05 13:45:46;;;;;;;4.13;3.15;;;12.60;68.60;;;;;;5029187;28;20029;-60
2022/11/05 13:48:22;;;;;;;4.40;3.10;;;12.50;68.90;;;;;;5026763;28;20154;-59
2022/11/05 13:51:19;;;;;;;4.25;3.35;;;12.40;68.40;;;;;;5025094;28;20075;-60
2022/11/05 13:53:51;;;;;;;3.80;3.05;;;12.40;68.80;;;;;;5017385;28;20105;-59
2022/11/05 13:56:28;;;;;;;5.57;3.90;;;12.30;69.00;;;;;;5023678;28;20030;-59
2022/11/05 13:59:28;;;;;;;4.30;3.05;;;12.30;69.20;;;;;;5024840;28;20021;-59
2022/11/05 14:01:57;;;;;;;3.70;3.25;;;12.30;69.70;;;;;;5019987;28;20573;-57